createdAt,value
2019-06-08T00:00:07.839Z,1.96
2019-06-08T00:02:38.493Z,1.72
2019-06-08T00:05:10.646Z,1.35
2019-06-08T00:07:41.197Z,1.47
2019-06-08T00:10:12.723Z,1.30
2019-06-08T00:12:43.371Z,0.88
2019-06-08T00:15:16.069Z,1.00
2019-06-08T00:17:46.648Z,0.90
2019-06-08T00:20:19.801Z,0.80
2019-06-08T00:22:50.337Z,0.88
2019-06-08T00:25:22.447Z,0.90
2019-06-08T00:27:53.104Z,0.88
2019-06-08T00:30:23.770Z,0.40
2019-06-08T00:32:54.357Z,0.47
2019-06-08T00:35:24.996Z,0.53
2019-06-08T00:37:55.553Z,0.40
2019-06-08T00:40:26.154Z,0.40
2019-06-08T00:42:56.698Z,0.50
2019-06-08T00:45:27.254Z,0.40
2019-06-08T00:47:57.799Z,0.40
2019-06-08T00:50:29.392Z,0.60
2019-06-08T00:52:59.950Z,0.50
2019-06-08T00:55:30.548Z,0.40
2019-06-08T00:58:01.028Z,0.40
2019-06-08T01:00:32.150Z,0.65
2019-06-08T01:03:02.732Z,0.45
2019-06-08T01:05:33.313Z,0.40
2019-06-08T01:08:05.360Z,0.42
2019-06-08T01:10:35.903Z,0.30
2019-06-08T01:13:07.239Z,0.42
2019-06-08T01:15:37.817Z,0.55
2019-06-08T01:18:08.398Z,0.20
2019-06-08T01:20:40.408Z,0.30
2019-06-08T01:23:11.002Z,0.40
2019-06-08T01:25:41.566Z,0.30
2019-06-08T01:28:12.315Z,0.30
2019-06-08T01:30:42.880Z,0.15
2019-06-08T01:33:13.432Z,0.20
2019-06-08T01:35:44.010Z,0.20
2019-06-08T01:38:14.528Z,0.40
2019-06-08T01:40:45.089Z,0.20
2019-06-08T01:43:15.615Z,0.17
2019-06-08T01:45:47.328Z,0.17
2019-06-08T01:48:20.410Z,0.40
2019-06-08T01:50:51.224Z,0.20
2019-06-08T01:53:22.766Z,0.20
2019-06-08T01:55:53.477Z,0.20
2019-06-08T01:58:25.282Z,0.23
2019-06-08T02:00:55.975Z,0.25
2019-06-08T02:03:26.692Z,0.30
2019-06-08T02:05:57.250Z,0.30
2019-06-08T02:08:28.605Z,0.30
2019-06-08T02:11:00.702Z,0.30
2019-06-08T02:13:31.252Z,0.35
2019-06-08T02:16:01.829Z,0.30
2019-06-08T02:18:39.929Z,0.40
2019-06-08T02:21:04.671Z,0.25
2019-06-08T02:23:35.242Z,0.40
2019-06-08T02:26:06.037Z,0.37
2019-06-08T02:28:36.682Z,0.40
2019-06-08T02:31:07.280Z,0.17
2019-06-08T02:33:37.840Z,0.20
2019-06-08T02:36:08.406Z,0.33
2019-06-08T02:38:40.740Z,0.20
2019-06-08T02:41:11.377Z,0.30
2019-06-08T02:43:42.016Z,0.40
2019-06-08T02:46:14.378Z,0.20
2019-06-08T02:49:02.292Z,0.28
2019-06-08T02:51:18.311Z,0.30
2019-06-08T02:53:50.143Z,0.50
2019-06-08T02:56:23.766Z,0.40
2019-06-08T02:58:58.272Z,0.30
2019-06-08T03:01:33.697Z,0.30
2019-06-08T03:04:04.742Z,0.23
2019-06-08T03:06:40.811Z,0.30
2019-06-08T03:09:10.621Z,0.28
2019-06-08T03:11:42.286Z,0.50
2019-06-08T03:14:13.313Z,0.30
2019-06-08T03:16:43.884Z,0.20
2019-06-08T03:19:21.670Z,0.40
2019-06-08T03:21:46.749Z,0.20
2019-06-08T03:24:17.347Z,0.20
2019-06-08T03:26:47.903Z,0.20
2019-06-08T03:29:18.462Z,0.17
2019-06-08T03:31:55.849Z,0.23
2019-06-08T03:34:21.286Z,0.17
2019-06-08T03:36:56.925Z,0.35
2019-06-08T03:39:25.594Z,0.20
2019-06-08T03:41:56.149Z,0.13
2019-06-08T03:44:26.749Z,0.30
2019-06-08T03:46:57.308Z,0.30
2019-06-08T03:49:41.015Z,0.20
2019-06-08T03:52:01.421Z,0.20
2019-06-08T03:54:31.930Z,0.25
2019-06-08T03:57:02.492Z,0.30
2019-06-08T03:59:33.044Z,0.30
2019-06-08T04:02:03.648Z,0.30
2019-06-08T04:04:37.795Z,0.30
2019-06-08T04:07:08.294Z,0.33
2019-06-08T04:09:39.799Z,0.30
2019-06-08T04:12:10.409Z,0.40
2019-06-08T04:14:42.162Z,0.50
2019-06-08T04:17:13.225Z,0.40
2019-06-08T04:20:02.824Z,0.30
2019-06-08T04:22:16.261Z,0.30
2019-06-08T04:24:46.934Z,0.30
2019-06-08T04:27:17.628Z,0.40
2019-06-08T04:29:50.114Z,0.30
2019-06-08T04:32:20.466Z,0.40
2019-06-08T04:34:51.053Z,0.30
2019-06-08T04:37:21.648Z,0.20
2019-06-08T04:39:52.214Z,0.30
2019-06-08T04:42:22.788Z,0.20
2019-06-08T04:44:53.314Z,0.10
2019-06-08T04:47:23.976Z,0.20
2019-06-08T04:49:54.502Z,0.37
2019-06-08T04:52:25.160Z,0.33
2019-06-08T04:54:55.782Z,0.40
2019-06-08T04:57:26.370Z,0.20
2019-06-08T04:59:56.896Z,0.20
2019-06-08T05:02:27.514Z,0.40
2019-06-08T05:04:58.042Z,0.35
2019-06-08T05:07:28.838Z,0.40
2019-06-08T05:09:59.395Z,0.20
2019-06-08T05:12:31.052Z,0.20
2019-06-08T05:15:01.630Z,0.20
2019-06-08T05:17:32.196Z,0.25
2019-06-08T05:20:03.019Z,0.20
2019-06-08T05:22:33.583Z,0.30
2019-06-08T05:25:04.605Z,0.30
2019-06-08T05:27:35.254Z,0.20
2019-06-08T05:30:09.416Z,0.10
2019-06-08T05:32:41.470Z,0.20
2019-06-08T05:35:12.600Z,0.23
2019-06-08T05:37:43.722Z,0.30
2019-06-08T05:40:16.451Z,0.40
2019-06-08T05:42:47.929Z,0.20
2019-06-08T05:45:20.075Z,0.30
2019-06-08T05:47:50.768Z,0.20
2019-06-08T05:50:21.382Z,0.23
2019-06-08T05:52:51.959Z,0.30
2019-06-08T05:55:22.542Z,0.30
2019-06-08T05:57:53.153Z,0.20
2019-06-08T06:00:24.417Z,0.20
2019-06-08T06:02:54.978Z,0.40
2019-06-08T06:05:25.523Z,0.20
2019-06-08T06:07:56.155Z,0.30
2019-06-08T06:10:26.856Z,0.20
2019-06-08T06:12:57.367Z,0.25
2019-06-08T06:15:27.966Z,0.10
2019-06-08T06:17:58.509Z,0.20
2019-06-08T06:20:29.097Z,0.30
2019-06-08T06:22:59.669Z,0.40
2019-06-08T06:25:31.742Z,0.20
2019-06-08T06:28:06.292Z,0.30
2019-06-08T06:30:36.107Z,0.30
2019-06-08T06:33:06.862Z,0.20
2019-06-08T06:35:37.565Z,0.23
2019-06-08T06:38:09.575Z,0.20
2019-06-08T06:40:40.195Z,0.40
2019-06-08T06:43:10.782Z,0.20
2019-06-08T06:45:41.866Z,0.30
2019-06-08T06:48:12.443Z,0.20
2019-06-08T06:50:44.301Z,0.30
2019-06-08T06:53:15.183Z,0.30
2019-06-08T06:55:46.905Z,0.23
2019-06-08T06:58:17.577Z,0.42
2019-06-08T07:00:49.405Z,0.27
2019-06-08T07:03:20.100Z,0.20
2019-06-08T07:05:51.759Z,0.28
2019-06-08T07:08:22.656Z,0.20
2019-06-08T07:10:53.555Z,0.35
2019-06-08T07:13:26.039Z,0.30
2019-06-08T07:15:58.284Z,0.30
2019-06-08T07:18:29.958Z,0.30
2019-06-08T07:21:00.668Z,0.42
2019-06-08T07:23:31.392Z,0.30
2019-06-08T07:26:01.953Z,0.50
2019-06-08T07:28:32.467Z,0.47
2019-06-08T07:31:04.547Z,0.20
2019-06-08T07:33:35.110Z,0.30
2019-06-08T07:36:05.820Z,0.40
2019-06-08T07:38:37.484Z,0.25
2019-06-08T07:41:09.685Z,0.47
2019-06-08T07:43:40.439Z,0.37
2019-06-08T07:46:11.063Z,0.23
2019-06-08T07:48:41.610Z,0.40
2019-06-08T07:51:13.223Z,0.30
2019-06-08T07:53:44.769Z,0.40
2019-06-08T07:56:15.393Z,0.40
2019-06-08T07:58:45.932Z,0.45
2019-06-08T08:01:16.519Z,0.30
2019-06-08T08:03:47.955Z,0.28
2019-06-08T08:06:18.687Z,0.35
2019-06-08T08:08:50.529Z,0.45
2019-06-08T08:11:21.344Z,0.30
2019-06-08T08:13:53.213Z,0.47
2019-06-08T08:16:23.773Z,0.23
2019-06-08T08:18:55.563Z,0.30
2019-06-08T08:21:29.411Z,0.33
2019-06-08T08:24:01.357Z,0.25
2019-06-08T08:26:34.430Z,0.35
2019-06-08T08:29:04.867Z,0.30
2019-06-08T08:31:37.418Z,0.40
2019-06-08T08:34:09.007Z,0.30
2019-06-08T08:36:39.805Z,0.40
2019-06-08T08:39:10.698Z,0.40
2019-06-08T08:41:42.301Z,0.40
2019-06-08T08:44:12.982Z,0.45
2019-06-08T08:46:43.509Z,0.40
2019-06-08T08:49:14.047Z,0.47
2019-06-08T08:51:44.611Z,0.40
2019-06-08T08:54:15.205Z,0.37
2019-06-08T08:56:50.479Z,0.42
2019-06-08T08:59:18.039Z,0.40
2019-06-08T09:01:48.566Z,0.60
2019-06-08T09:04:19.192Z,0.50
2019-06-08T09:06:50.947Z,0.50
2019-06-08T09:09:22.225Z,0.53
2019-06-08T09:11:53.862Z,0.57
2019-06-08T09:14:25.180Z,0.50
2019-06-08T09:16:58.539Z,0.62
2019-06-08T09:19:28.216Z,0.40
2019-06-08T09:22:01.216Z,0.45
2019-06-08T09:24:31.106Z,0.75
2019-06-08T09:27:03.999Z,0.50
2019-06-08T09:29:34.098Z,0.55
2019-06-08T09:32:04.726Z,0.60
2019-06-08T09:34:35.396Z,0.70
2019-06-08T09:37:08.109Z,0.40
2019-06-08T09:39:38.747Z,0.50
2019-06-08T09:42:09.581Z,0.50
2019-06-08T09:44:40.127Z,0.40
2019-06-08T09:47:12.531Z,0.42
2019-06-08T09:49:43.036Z,0.45
2019-06-08T09:52:13.592Z,0.50
2019-06-08T09:54:44.143Z,0.60
2019-06-08T09:57:18.848Z,0.60
2019-06-08T09:59:50.531Z,0.30
2019-06-08T10:02:21.224Z,0.40
2019-06-08T10:04:51.828Z,0.60
2019-06-08T10:07:22.478Z,0.50
2019-06-08T10:09:54.282Z,0.40
2019-06-08T10:12:24.933Z,0.37
2019-06-08T10:14:56.710Z,0.68
2019-06-08T10:17:27.955Z,0.47
2019-06-08T10:20:00.605Z,0.42
2019-06-08T10:22:31.948Z,0.40
2019-06-08T10:25:05.515Z,0.50
2019-06-08T10:27:34.751Z,0.33
2019-06-08T10:30:09.723Z,0.60
2019-06-08T10:32:38.483Z,0.50
2019-06-08T10:35:10.585Z,0.45
2019-06-08T10:37:41.334Z,0.50
2019-06-08T10:40:13.739Z,0.40
2019-06-08T10:42:44.278Z,0.60
2019-06-08T10:45:18.352Z,0.50
2019-06-08T10:47:48.160Z,0.50
2019-06-08T10:50:20.331Z,0.60
2019-06-08T10:52:51.060Z,0.40
2019-06-08T10:55:21.603Z,0.50
2019-06-08T10:57:52.170Z,0.50
2019-06-08T11:00:28.358Z,0.50
2019-06-08T11:03:01.705Z,0.53
2019-06-08T11:05:31.470Z,0.60
2019-06-08T11:08:02.933Z,0.50
2019-06-08T11:10:37.351Z,0.40
2019-06-08T11:13:13.251Z,0.40
2019-06-08T11:15:40.232Z,0.75
2019-06-08T11:18:13.209Z,0.40
2019-06-08T11:20:43.078Z,0.57
2019-06-08T11:23:13.597Z,0.55
2019-06-08T11:25:44.313Z,0.50
2019-06-08T11:28:15.340Z,0.50
2019-06-08T11:30:48.080Z,0.40
2019-06-08T11:33:18.772Z,0.60
2019-06-08T11:35:52.313Z,0.57
2019-06-08T11:38:22.962Z,0.23
2019-06-08T11:40:54.623Z,0.45
2019-06-08T11:43:25.184Z,0.60
2019-06-08T11:45:58.269Z,0.60
2019-06-08T11:48:28.557Z,0.60
2019-06-08T11:51:00.606Z,0.60
2019-06-08T11:53:31.319Z,0.47
2019-06-08T11:56:04.735Z,0.30
2019-06-08T11:58:39.519Z,0.30
2019-06-08T12:01:13.737Z,0.50
2019-06-08T12:03:44.200Z,0.20
2019-06-08T12:06:14.837Z,0.30
2019-06-08T12:08:47.306Z,0.50
2019-06-08T12:11:19.768Z,0.40
2019-06-08T12:13:50.006Z,0.55
2019-06-08T12:16:22.269Z,0.50
2019-06-08T12:18:55.064Z,0.50
2019-06-08T12:21:27.383Z,0.30
2019-06-08T12:23:57.889Z,0.30
2019-06-08T12:26:28.432Z,0.60
2019-06-08T12:29:01.351Z,0.40
2019-06-08T12:31:31.494Z,0.50
2019-06-08T12:34:02.121Z,0.57
2019-06-08T12:36:32.652Z,0.40
2019-06-08T12:39:04.711Z,0.33
2019-06-08T12:41:37.753Z,0.30
2019-06-08T12:44:11.782Z,0.35
2019-06-08T12:46:41.404Z,0.35
2019-06-08T12:49:13.237Z,0.40
2019-06-08T12:51:45.571Z,0.42
2019-06-08T12:54:19.405Z,0.47
2019-06-08T12:56:49.990Z,0.57
2019-06-08T12:59:22.572Z,0.50
2019-06-08T13:01:52.973Z,0.40
2019-06-08T13:04:24.010Z,0.60
2019-06-08T13:06:54.643Z,0.50
2019-06-08T13:09:25.263Z,0.45
2019-06-08T13:11:57.181Z,0.55
2019-06-08T13:14:28.446Z,0.42
2019-06-08T13:17:01.150Z,0.60
2019-06-08T13:19:31.459Z,0.42
2019-06-08T13:22:02.059Z,0.50
2019-06-08T13:24:32.592Z,0.50
2019-06-08T13:27:03.233Z,0.50
2019-06-08T13:29:33.772Z,0.40
2019-06-08T13:32:04.551Z,0.60
2019-06-08T13:34:35.117Z,0.47
2019-06-08T13:37:08.221Z,0.50
2019-06-08T13:39:39.876Z,0.47
2019-06-08T13:42:11.298Z,0.50
2019-06-08T13:44:42.044Z,0.42
2019-06-08T13:47:14.224Z,0.57
2019-06-08T13:49:44.889Z,0.50
2019-06-08T13:52:16.210Z,0.47
2019-06-08T13:54:48.056Z,0.40
2019-06-08T13:57:21.867Z,0.50
2019-06-08T13:59:51.649Z,0.30
2019-06-08T14:02:28.017Z,0.47
2019-06-08T14:04:58.969Z,0.60
2019-06-08T14:07:34.409Z,0.50
2019-06-08T14:10:03.141Z,0.50
2019-06-08T14:12:33.677Z,0.50
2019-06-08T14:15:04.609Z,0.50
2019-06-08T14:17:35.147Z,0.50
2019-06-08T14:20:08.165Z,0.33
2019-06-08T14:22:39.047Z,0.50
2019-06-08T14:25:10.856Z,0.50
2019-06-08T14:27:41.563Z,0.57
2019-06-08T14:30:12.258Z,0.77
2019-06-08T14:32:42.801Z,0.80
2019-06-08T14:35:13.579Z,0.37
2019-06-08T14:37:44.153Z,0.42
2019-06-08T14:40:14.733Z,0.57
2019-06-08T14:42:45.314Z,0.40
2019-06-08T14:45:18.131Z,0.50
2019-06-08T14:47:48.999Z,0.37
2019-06-08T14:50:21.365Z,0.50
2019-06-08T14:52:52.019Z,0.60
2019-06-08T14:55:23.279Z,0.50
2019-06-08T14:57:54.019Z,0.57
2019-06-08T15:00:25.699Z,0.40
2019-06-08T15:02:58.929Z,0.40
2019-06-08T15:05:32.155Z,0.70
2019-06-08T15:08:02.256Z,0.60
2019-06-08T15:10:32.892Z,0.45
2019-06-08T15:13:03.571Z,0.57
2019-06-08T15:15:34.134Z,0.47
2019-06-08T15:18:05.118Z,0.70
2019-06-08T15:20:37.829Z,0.42
2019-06-08T15:23:08.461Z,0.50
2019-06-08T15:25:39.357Z,0.53
2019-06-08T15:28:09.913Z,0.40
2019-06-08T15:30:40.487Z,0.40
2019-06-08T15:33:11.088Z,0.37
2019-06-08T15:35:41.679Z,0.60
2019-06-08T15:38:13.731Z,0.33
2019-06-08T15:40:44.257Z,0.68
2019-06-08T15:43:14.948Z,0.55
2019-06-08T15:45:45.521Z,0.62
2019-06-08T15:48:20.223Z,0.60
2019-06-08T15:50:49.421Z,0.53
2019-06-08T15:53:20.047Z,0.65
2019-06-08T15:55:51.544Z,0.50
2019-06-08T15:58:22.802Z,0.62
2019-06-08T16:00:55.505Z,0.70
2019-06-08T16:03:25.705Z,0.60
2019-06-08T16:05:56.323Z,0.50
2019-06-08T16:08:27.835Z,0.60
2019-06-08T16:10:58.481Z,0.55
2019-06-08T16:13:29.189Z,0.68
2019-06-08T16:15:59.872Z,0.50
2019-06-08T16:18:31.643Z,0.40
2019-06-08T16:21:02.449Z,0.60
2019-06-08T16:23:33.699Z,0.57
2019-06-08T16:26:04.449Z,0.47
2019-06-08T16:28:36.215Z,0.55
2019-06-08T16:31:07.049Z,0.70
2019-06-08T16:33:37.705Z,0.40
2019-06-08T16:36:08.343Z,0.70
2019-06-08T16:38:39.108Z,0.60
2019-06-08T16:41:09.666Z,0.68
2019-06-08T16:43:40.321Z,0.70
2019-06-08T16:46:10.876Z,0.57
2019-06-08T16:48:41.397Z,0.45
2019-06-08T16:51:11.974Z,0.50
2019-06-08T16:53:42.484Z,0.85
2019-06-08T16:56:14.835Z,0.53
2019-06-08T16:58:45.384Z,0.70
2019-06-08T17:01:16.285Z,0.68
2019-06-08T17:03:47.727Z,0.50
2019-06-08T17:06:18.442Z,0.50
2019-06-08T17:08:49.012Z,0.53
2019-06-08T17:11:19.573Z,0.50
2019-06-08T17:13:50.143Z,0.78
2019-06-08T17:16:20.932Z,0.60
2019-06-08T17:18:51.440Z,0.62
2019-06-08T17:21:22.031Z,0.47
2019-06-08T17:23:52.579Z,0.60
2019-06-08T17:26:23.136Z,0.40
2019-06-08T17:28:53.657Z,0.60
2019-06-08T17:31:24.200Z,0.40
2019-06-08T17:33:54.745Z,0.70
2019-06-08T17:36:25.391Z,0.80
2019-06-08T17:38:56.002Z,0.50
2019-06-08T17:41:26.575Z,0.50
2019-06-08T17:43:57.075Z,0.47
2019-06-08T17:46:27.615Z,0.53
2019-06-08T17:48:58.163Z,0.40
2019-06-08T17:51:28.740Z,0.60
2019-06-08T17:53:59.321Z,0.30
2019-06-08T17:56:29.918Z,0.50
2019-06-08T17:59:00.442Z,0.40
2019-06-08T18:01:33.893Z,0.60
2019-06-08T18:04:04.321Z,0.45
2019-06-08T18:06:36.437Z,0.50
2019-06-08T18:09:08.096Z,0.80
2019-06-08T18:11:41.799Z,0.85
2019-06-08T18:14:11.971Z,0.60
2019-06-08T18:16:44.060Z,0.90
2019-06-08T18:19:28.525Z,0.57
2019-06-08T18:22:04.839Z,0.80
2019-06-08T18:24:34.517Z,0.57
2019-06-08T18:27:07.645Z,0.62
2019-06-08T18:29:39.602Z,0.62
2019-06-08T18:32:10.623Z,0.72
2019-06-08T18:34:42.155Z,0.80
2019-06-08T18:37:13.924Z,0.85
2019-06-08T18:39:46.062Z,0.70
2019-06-08T18:42:18.925Z,0.70
2019-06-08T18:44:49.455Z,0.93
2019-06-08T18:47:21.265Z,0.57
2019-06-08T18:49:51.797Z,0.78
2019-06-08T18:52:22.649Z,0.65
2019-06-08T18:54:53.224Z,0.80
2019-06-08T18:57:27.383Z,0.50
2019-06-08T18:59:57.530Z,0.60
2019-06-08T19:02:28.638Z,0.53
2019-06-08T19:05:21.347Z,0.70
2019-06-08T19:07:52.541Z,0.45
2019-06-08T19:10:33.448Z,0.68
2019-06-08T19:13:04.337Z,0.60
2019-06-08T19:15:40.713Z,0.70
2019-06-08T19:18:09.159Z,0.65
2019-06-08T19:20:44.878Z,0.57
2019-06-08T19:23:14.883Z,0.78
2019-06-08T19:25:47.961Z,0.62
2019-06-08T19:28:32.712Z,0.68
2019-06-08T19:30:51.623Z,0.78
2019-06-08T19:33:22.373Z,0.60
2019-06-08T19:35:53.804Z,0.70
2019-06-08T19:38:24.646Z,0.70
2019-06-08T19:40:57.284Z,0.80
2019-06-08T19:43:27.831Z,0.88
2019-06-08T19:45:58.583Z,0.90
2019-06-08T19:48:31.191Z,0.78
2019-06-08T19:51:01.442Z,0.98
2019-06-08T19:53:32.038Z,0.82
2019-06-08T19:56:02.572Z,0.78
2019-06-08T19:58:34.601Z,0.82
2019-06-08T20:01:07.268Z,0.60
2019-06-08T20:03:37.988Z,0.82
2019-06-08T20:06:08.695Z,0.62
2019-06-08T20:08:39.502Z,0.88
2019-06-08T20:11:10.183Z,1.05
2019-06-08T20:13:41.200Z,1.30
2019-06-08T20:16:11.773Z,0.98
2019-06-08T20:18:43.630Z,0.98
2019-06-08T20:21:14.218Z,1.10
2019-06-08T20:23:45.000Z,1.20
2019-06-08T20:26:17.361Z,1.20
2019-06-08T20:28:51.197Z,1.22
2019-06-08T20:31:20.662Z,1.82
2019-06-08T20:33:52.216Z,1.35
2019-06-08T20:36:24.257Z,1.12
2019-06-08T20:38:58.404Z,1.25
2019-06-08T20:41:29.093Z,1.30
2019-06-08T20:43:59.819Z,1.32
2019-06-08T20:46:31.558Z,1.25
2019-06-08T20:49:02.276Z,1.20
2019-06-08T20:51:52.537Z,1.10
2019-06-08T20:54:23.263Z,1.02
2019-06-08T20:56:53.839Z,1.20
2019-06-08T20:59:31.029Z,1.20
2019-06-08T21:01:58.931Z,1.20
2019-06-08T21:04:29.161Z,1.07
2019-06-08T21:07:02.569Z,0.93
2019-06-08T21:09:33.156Z,1.00
2019-06-08T21:12:04.917Z,0.98
2019-06-08T21:14:37.853Z,1.10
2019-06-08T21:17:07.805Z,1.20
2019-06-08T21:19:39.532Z,1.05
2019-06-08T21:22:10.093Z,1.10
2019-06-08T21:24:41.907Z,1.12
2019-06-08T21:27:12.561Z,1.15
2019-06-08T21:29:49.287Z,1.17
2019-06-08T21:32:17.573Z,1.22
2019-06-08T21:34:50.844Z,1.40
2019-06-08T21:37:20.165Z,1.32
2019-06-08T21:39:55.332Z,1.70
2019-06-08T21:42:23.020Z,2.00
2019-06-08T21:44:59.419Z,1.42
2019-06-08T21:47:27.494Z,1.30
2019-06-08T21:50:00.385Z,1.95
2019-06-08T21:52:30.344Z,1.47
2019-06-08T21:55:00.929Z,1.60
2019-06-08T21:57:31.512Z,1.35
2019-06-08T22:00:21.921Z,1.40
2019-06-08T22:02:34.353Z,1.42
2019-06-08T22:05:08.043Z,1.30
2019-06-08T22:07:37.922Z,1.47
2019-06-08T22:10:08.973Z,1.20
2019-06-08T22:12:40.504Z,1.30
2019-06-08T22:15:12.202Z,1.10
2019-06-08T22:17:42.779Z,1.12
2019-06-08T22:20:13.543Z,1.57
2019-06-08T22:22:44.204Z,1.00
2019-06-08T22:25:17.530Z,1.47
2019-06-08T22:27:47.830Z,1.30
2019-06-08T22:30:35.180Z,1.27
2019-06-08T22:32:52.782Z,1.30
2019-06-08T22:35:24.411Z,0.88
2019-06-08T22:37:57.274Z,1.00
2019-06-08T22:40:28.086Z,0.85
2019-06-08T22:43:00.733Z,1.00
2019-06-08T22:45:31.066Z,1.35
2019-06-08T22:48:02.543Z,1.10
2019-06-08T22:50:33.911Z,1.32
2019-06-08T22:53:08.020Z,1.10
2019-06-08T22:55:38.601Z,1.10
2019-06-08T22:58:09.217Z,1.15
2019-06-08T23:00:51.744Z,1.10
2019-06-08T23:03:12.146Z,1.15
2019-06-08T23:05:47.552Z,1.52
2019-06-08T23:08:18.580Z,1.42
2019-06-08T23:10:49.099Z,1.40
2019-06-08T23:13:19.706Z,1.20
2019-06-08T23:15:50.257Z,1.10
2019-06-08T23:18:20.853Z,1.40
2019-06-08T23:20:51.415Z,1.40
2019-06-08T23:23:21.985Z,1.10
2019-06-08T23:25:53.754Z,0.82
2019-06-08T23:28:24.399Z,1.32
2019-06-08T23:31:07.727Z,1.20
2019-06-08T23:33:27.882Z,1.30
2019-06-08T23:36:34.276Z,1.10
2019-06-08T23:38:32.725Z,1.10
2019-06-08T23:41:03.713Z,1.37
2019-06-08T23:43:34.475Z,1.20
2019-06-08T23:46:05.712Z,1.20
2019-06-08T23:48:37.427Z,1.55
2019-06-08T23:51:27.662Z,1.77
2019-06-08T23:54:00.758Z,2.08
2019-06-08T23:56:30.600Z,2.17
2019-06-08T23:59:03.152Z,2.10
